Time;durP1;ratioP1;P1;durP2;ratioP2;P2;SDS_P1;SDS_P2;PMS_P1;PMS_P2;Temp;Humidity;BMP_temperature;BMP_pressure;BME280_temperature;BME280_humidity;BME280_pressure;Samples;Min_cycle;Max_cycle;Signal;HPM_P1;HPM_P2
2023/08/21 00:02:27;;;;;;;22.63;19.03;;;22.10;1.00;;;;;;8298419;28;20305;-68
2023/08/21 00:06:28;;;;;;;22.17;19.50;;;22.10;1.00;;;;;;8322692;28;20280;-66
2023/08/21 00:10:30;;;;;;;21.20;18.53;;;22.00;1.00;;;;;;8321187;28;20210;-63
2023/08/21 00:14:31;;;;;;;21.57;19.53;;;22.00;99.90;;;;;;8313227;28;20191;-65
2023/08/21 00:18:32;;;;;;;21.40;19.33;;;22.10;99.90;;;;;;8322634;28;20530;-65
2023/08/21 00:22:32;;;;;;;23.90;21.70;;;22.10;99.90;;;;;;8329191;28;20197;-63
2023/08/21 00:26:33;;;;;;;24.63;22.03;;;22.00;99.90;;;;;;8306414;28;20192;-65
2023/08/21 00:30:34;;;;;;;27.03;23.33;;;22.10;99.90;;;;;;8304013;28;20187;-64
2023/08/21 00:34:35;;;;;;;26.80;24.27;;;22.00;99.90;;;;;;8311779;28;20259;-65
2023/08/21 00:38:35;;;;;;;24.93;22.43;;;22.00;99.90;;;;;;8306874;28;20202;-65
2023/08/21 00:42:36;;;;;;;25.53;22.93;;;22.00;99.90;;;;;;8327691;28;20208;-64
2023/08/21 00:46:37;;;;;;;25.77;23.27;;;22.10;99.90;;;;;;8324708;28;20201;-64
2023/08/21 00:50:38;;;;;;;25.57;22.87;;;22.10;99.90;;;;;;8304809;28;20608;-63
2023/08/21 00:54:39;;;;;;;25.93;23.07;;;22.00;99.90;;;;;;8326850;28;20221;-61
2023/08/21 00:58:40;;;;;;;23.67;21.43;;;21.90;99.90;;;;;;8318435;28;20205;-64
2023/08/21 01:02:41;;;;;;;25.97;23.37;;;21.80;99.90;;;;;;8318095;28;20178;-63
2023/08/21 01:06:42;;;;;;;26.07;23.43;;;21.80;99.90;;;;;;8313409;28;20204;-63
2023/08/21 01:10:56;;;;;;;26.30;23.50;;;21.80;99.90;;;;;;8328580;28;20210;-63
2023/08/21 01:15:06;;;;;;;27.17;24.40;;;21.80;99.90;;;;;;8322649;28;20190;-64
2023/08/21 01:19:34;;;;;;;27.67;24.87;;;21.80;99.90;;;;;;8329800;28;20231;-63
2023/08/21 01:23:35;;;;;;;28.47;25.57;;;21.80;99.90;;;;;;8317093;28;20450;-69
2023/08/21 01:27:37;;;;;;;24.40;22.10;;;21.80;99.90;;;;;;8325416;28;20190;-69
2023/08/21 01:31:40;;;;;;;29.13;26.17;;;21.80;99.90;;;;;;8308419;28;21383;-67
2023/08/21 01:35:41;;;;;;;25.77;23.20;;;21.80;99.90;;;;;;8321338;28;20207;-65
2023/08/21 01:39:42;;;;;;;25.37;22.77;;;21.80;99.90;;;;;;8310524;28;20305;-70
2023/08/21 01:43:42;;;;;;;27.07;24.23;;;21.80;99.90;;;;;;8305373;28;20222;-68
2023/08/21 01:47:43;;;;;;;27.10;24.30;;;21.80;99.90;;;;;;8324126;28;20216;-68
2023/08/21 01:51:44;;;;;;;25.53;23.10;;;21.80;99.90;;;;;;8326013;28;20222;-68
2023/08/21 01:55:45;;;;;;;28.97;26.03;;;21.80;99.90;;;;;;8325317;28;20301;-66
2023/08/21 01:59:45;;;;;;;26.73;23.87;;;21.70;99.90;;;;;;8322484;28;20233;-67
2023/08/21 02:03:46;;;;;;;27.80;25.07;;;21.60;99.90;;;;;;8310916;28;20186;-66
2023/08/21 02:07:47;;;;;;;25.23;22.60;;;21.60;99.90;;;;;;8299317;28;20182;-65
2023/08/21 02:11:48;;;;;;;23.73;21.40;;;21.50;99.90;;;;;;8312025;28;20288;-66
2023/08/21 02:15:49;;;;;;;25.77;23.17;;;21.50;99.90;;;;;;8325109;28;20224;-66
2023/08/21 02:19:50;;;;;;;23.37;21.17;;;21.40;99.90;;;;;;8321160;28;20217;-66
2023/08/21 02:23:50;;;;;;;20.67;18.67;;;21.30;99.90;;;;;;8323031;28;20197;-67
2023/08/21 02:27:51;;;;;;;20.20;18.13;;;21.30;99.90;;;;;;8317766;28;20183;-68
2023/08/21 02:31:52;;;;;;;20.20;18.10;;;21.20;99.90;;;;;;8305559;28;20190;-62
2023/08/21 02:35:53;;;;;;;20.77;18.27;;;21.10;99.90;;;;;;8325327;28;20209;-64
2023/08/21 02:39:53;;;;;;;17.43;15.70;;;21.10;99.90;;;;;;8324577;28;20231;-64
2023/08/21 02:43:54;;;;;;;17.93;16.23;;;21.10;99.90;;;;;;8320207;28;20182;-62
2023/08/21 02:47:55;;;;;;;15.80;14.23;;;21.00;99.90;;;;;;8309288;28;20228;-63
2023/08/21 02:51:55;;;;;;;17.97;16.27;;;20.90;99.90;;;;;;8305872;28;20195;-61
2023/08/21 02:55:56;;;;;;;16.47;14.87;;;20.90;99.90;;;;;;8308437;28;20250;-64
2023/08/21 02:59:57;;;;;;;15.60;13.40;;;20.90;99.90;;;;;;8315167;28;20223;-63
2023/08/21 03:03:58;;;;;;;15.83;14.33;;;20.80;99.90;;;;;;8322583;28;20190;-63
2023/08/21 03:07:58;;;;;;;13.83;12.43;;;20.80;99.90;;;;;;8285585;28;20293;-65
2023/08/21 03:11:59;;;;;;;15.03;13.43;;;20.70;99.90;;;;;;8287949;28;20246;-64
2023/08/21 03:16:00;;;;;;;14.30;12.80;;;20.60;99.90;;;;;;8299005;28;20215;-66
2023/08/21 03:20:04;;;;;;;14.53;13.13;;;20.50;99.90;;;;;;8302829;28;20209;-60
2023/08/21 03:24:07;;;;;;;13.20;11.80;;;20.40;99.90;;;;;;8315777;28;20198;-62
2023/08/21 03:28:07;;;;;;;12.20;10.97;;;20.40;99.90;;;;;;8294967;28;20190;-62
2023/08/21 03:32:08;;;;;;;11.73;10.53;;;20.40;99.90;;;;;;8313723;28;20252;-62
2023/08/21 03:36:09;;;;;;;10.20;9.20;;;20.40;99.90;;;;;;8318217;28;20205;-64
2023/08/21 03:40:10;;;;;;;10.80;9.70;;;20.30;99.90;;;;;;8319480;28;20257;-64
2023/08/21 03:44:11;;;;;;;13.50;11.67;;;20.20;99.90;;;;;;8308613;28;20188;-61
2023/08/21 03:48:13;;;;;;;9.33;8.17;;;20.10;99.90;;;;;;8329104;28;20198;-66
2023/08/21 03:52:14;;;;;;;9.33;7.10;;;20.10;99.90;;;;;;8312113;28;20194;-70
2023/08/21 03:56:14;;;;;;;9.03;6.70;;;20.10;99.90;;;;;;8328339;28;20237;-69
2023/08/21 04:00:16;;;;;;;8.07;7.23;;;20.10;99.90;;;;;;8324271;28;20198;-68
2023/08/21 04:04:16;;;;;;;8.40;7.20;;;20.10;99.90;;;;;;8320177;28;20189;-66
2023/08/21 04:08:17;;;;;;;8.30;7.10;;;20.10;99.90;;;;;;8323599;28;20310;-66
2023/08/21 04:12:18;;;;;;;7.73;6.93;;;20.00;99.90;;;;;;8322191;28;20317;-65
2023/08/21 04:16:21;;;;;;;8.10;7.30;;;20.00;99.90;;;;;;8312076;28;20210;-66
2023/08/21 04:20:22;;;;;;;8.00;7.20;;;19.90;99.90;;;;;;8306624;28;20185;-65
2023/08/21 04:24:22;;;;;;;7.73;7.00;;;19.90;99.90;;;;;;8307442;28;20205;-64
2023/08/21 04:28:23;;;;;;;8.00;6.80;;;19.80;99.90;;;;;;8309315;28;20269;-65
2023/08/21 04:32:24;;;;;;;7.80;7.00;;;19.80;99.90;;;;;;8324205;28;20191;-65
2023/08/21 04:36:24;;;;;;;7.53;6.63;;;19.90;99.90;;;;;;8307992;28;20213;-64
2023/08/21 04:40:25;;;;;;;9.63;7.47;;;20.00;99.90;;;;;;8310466;28;20228;-65
2023/08/21 04:44:26;;;;;;;7.27;6.67;;;20.10;99.90;;;;;;8310841;28;20216;-65
2023/08/21 04:48:27;;;;;;;8.20;6.33;;;20.10;99.90;;;;;;8320189;28;20190;-64
2023/08/21 04:52:27;;;;;;;14.47;6.83;;;20.40;99.90;;;;;;8307416;28;20198;-61
2023/08/21 04:56:28;;;;;;;7.80;7.00;;;20.50;99.90;;;;;;8313840;28;20286;-61
2023/08/21 05:00:29;;;;;;;9.50;7.60;;;20.60;99.90;;;;;;8298559;28;20186;-62
2023/08/21 05:04:30;;;;;;;6.80;6.10;;;20.60;99.90;;;;;;8320853;28;20187;-61
2023/08/21 05:08:30;;;;;;;13.53;9.33;;;20.70;99.90;;;;;;8317461;28;20189;-61
2023/08/21 05:12:31;;;;;;;15.63;11.50;;;20.60;99.90;;;;;;8310474;28;20285;-63
2023/08/21 05:16:32;;;;;;;11.50;9.37;;;20.50;99.90;;;;;;8314316;28;20202;-62
2023/08/21 05:20:33;;;;;;;8.13;7.33;;;20.30;99.90;;;;;;8321290;28;20188;-61
2023/08/21 05:24:33;;;;;;;9.13;7.47;;;20.40;99.90;;;;;;8323064;28;20208;-61
2023/08/21 05:28:34;;;;;;;9.50;6.93;;;20.30;99.90;;;;;;8316031;28;20182;-65
2023/08/21 05:32:35;;;;;;;7.97;6.27;;;20.40;99.90;;;;;;8281582;28;20189;-62
2023/08/21 05:36:35;;;;;;;7.53;6.67;;;20.50;99.90;;;;;;8314699;28;20218;-62
2023/08/21 05:40:36;;;;;;;8.33;6.63;;;20.50;99.90;;;;;;8324540;28;20178;-63
2023/08/21 05:44:37;;;;;;;6.40;5.80;;;20.50;99.90;;;;;;8320203;28;20174;-62
2023/08/21 05:48:37;;;;;;;7.87;7.17;;;20.70;99.90;;;;;;8317403;28;20190;-65
2023/08/21 05:52:38;;;;;;;10.27;7.00;;;21.30;99.90;;;;;;8302784;28;20523;-65
2023/08/21 05:56:39;;;;;;;6.97;5.70;;;21.90;99.90;;;;;;8298672;28;20202;-64
2023/08/21 06:00:39;;;;;;;6.60;5.83;;;22.20;99.90;;;;;;8298869;28;20189;-66
2023/08/21 06:04:42;;;;;;;6.37;5.63;;;22.40;65.10;;;;;;8315169;28;20185;-67
2023/08/21 06:08:42;;;;;;;7.83;6.57;;;22.60;1.00;;;;;;8287591;28;20810;-69
2023/08/21 06:12:43;;;;;;;6.87;6.17;;;22.90;1.00;;;;;;8297153;28;20509;-66
2023/08/21 06:16:45;;;;;;;6.37;5.77;;;23.20;1.00;;;;;;8296112;28;20206;-64
2023/08/21 06:20:45;;;;;;;5.90;5.40;;;23.40;1.00;;;;;;8305485;28;20226;-66
2023/08/21 06:24:46;;;;;;;6.97;6.13;;;23.60;1.00;;;;;;8315605;28;20391;-66
2023/08/21 06:28:46;;;;;;;7.13;6.47;;;23.60;1.00;;;;;;8311235;28;20269;-69
2023/08/21 06:32:48;;;;;;;6.73;6.03;;;23.40;1.00;;;;;;8310075;28;20240;-68
2023/08/21 06:36:49;;;;;;;7.80;6.37;;;23.20;1.00;;;;;;8291432;28;20328;-66
2023/08/21 06:40:50;;;;;;;8.17;6.57;;;23.10;1.00;;;;;;8312422;28;20220;-69
2023/08/21 06:44:51;;;;;;;7.83;7.00;;;22.90;1.00;;;;;;8303387;28;20668;-68
2023/08/21 06:48:52;;;;;;;7.70;6.70;;;22.80;1.00;;;;;;8316783;28;20236;-65
2023/08/21 06:52:53;;;;;;;7.53;6.73;;;22.70;1.00;;;;;;8312916;28;20196;-66
2023/08/21 06:56:53;;;;;;;7.30;6.50;;;22.60;1.00;;;;;;8311765;28;20213;-67
2023/08/21 07:00:55;;;;;;;7.67;6.90;;;22.40;1.00;;;;;;8315972;28;21122;-67
2023/08/21 07:04:56;;;;;;;11.67;7.30;;;22.30;1.00;;;;;;8286783;28;20213;-66
2023/08/21 07:08:57;;;;;;;8.13;6.47;;;22.40;1.00;;;;;;8294874;28;20205;-68
2023/08/21 07:12:58;;;;;;;7.20;6.50;;;22.50;1.00;;;;;;8301695;28;20193;-68
2023/08/21 07:16:58;;;;;;;6.40;5.80;;;22.70;1.00;;;;;;8294027;28;20289;-65
2023/08/21 07:21:00;;;;;;;9.47;5.40;;;22.90;1.00;;;;;;8319623;28;20189;-70
2023/08/21 07:25:03;;;;;;;7.00;5.93;;;23.00;1.00;;;;;;8311447;28;20213;-66
2023/08/21 07:29:04;;;;;;;7.23;5.23;;;23.20;1.00;;;;;;8308193;28;20482;-66
2023/08/21 07:33:05;;;;;;;6.77;5.20;;;23.30;1.00;;;;;;8314890;28;20209;-66
2023/08/21 07:37:08;;;;;;;7.40;5.33;;;23.50;1.00;;;;;;8306105;28;20217;-69
2023/08/21 07:41:11;;;;;;;6.47;5.10;;;23.60;1.00;;;;;;8296821;28;20232;-66
2023/08/21 07:45:12;;;;;;;7.40;4.77;;;23.80;1.00;;;;;;8313698;28;20735;-69
2023/08/21 07:49:12;;;;;;;5.97;4.40;;;24.00;1.00;;;;;;8306293;28;20179;-66
2023/08/21 07:53:13;;;;;;;6.63;4.53;;;24.20;1.00;;;;;;8305475;28;20190;-72
2023/08/21 07:57:14;;;;;;;5.90;4.03;;;24.30;1.00;;;;;;8316402;28;20213;-71
2023/08/21 08:01:15;;;;;;;6.33;4.00;;;24.30;1.00;;;;;;8302943;28;20194;-66
2023/08/21 08:05:15;;;;;;;5.87;4.10;;;24.20;1.00;;;;;;8315954;28;20191;-65
2023/08/21 08:09:16;;;;;;;5.47;4.00;;;24.30;1.00;;;;;;8319373;28;20213;-68
2023/08/21 08:13:17;;;;;;;5.30;4.05;;;24.60;1.00;;;;;;8311435;28;20189;-67
2023/08/21 08:17:17;;;;;;;7.35;4.55;;;24.70;1.00;;;;;;8328952;28;20269;-64
2023/08/21 08:21:18;;;;;;;5.13;4.10;;;24.80;1.00;;;;;;8325651;28;20289;-64
2023/08/21 08:25:19;;;;;;;4.55;4.07;;;25.00;1.00;;;;;;8318317;28;20572;-64
2023/08/21 08:29:20;;;;;;;6.65;3.90;;;25.10;1.00;;;;;;8311022;28;20219;-68
2023/08/21 08:33:20;;;;;;;4.45;3.72;;;25.20;1.00;;;;;;8307049;28;20183;-66
2023/08/21 08:37:21;;;;;;;4.50;3.60;;;25.50;1.00;;;;;;8312597;28;20212;-67
2023/08/21 08:41:29;;;;;;;4.20;3.28;;;25.60;1.00;;;;;;8320613;28;20213;-65
2023/08/21 08:45:30;;;;;;;5.75;3.90;;;25.80;1.00;;;;;;8325262;28;20178;-70
2023/08/21 08:49:31;;;;;;;3.75;3.17;;;25.90;1.00;;;;;;8329262;28;20324;-65
2023/08/21 08:53:33;;;;;;;5.43;3.72;;;26.00;1.00;;;;;;8322314;28;20265;-66
2023/08/21 08:57:34;;;;;;;4.57;4.05;;;26.00;99.90;;;;;;8307586;28;20206;-67
2023/08/21 09:01:35;;;;;;;6.50;4.20;;;26.10;1.00;;;;;;8311413;28;21914;-71
2023/08/21 09:05:36;;;;;;;4.20;3.53;;;26.40;99.90;;;;;;8326985;28;20191;-68
2023/08/21 09:09:44;;;;;;;4.80;3.55;;;26.60;99.90;;;;;;8303458;28;20210;-65
2023/08/21 09:13:50;;;;;;;4.70;3.38;;;26.80;99.90;;;;;;8324784;28;20178;-65
2023/08/21 09:17:54;;;;;;;3.75;3.40;;;27.50;99.90;;;;;;8325144;28;20210;-67
2023/08/21 09:21:54;;;;;;;5.10;3.45;;;28.00;99.90;;;;;;8325303;28;20194;-67
2023/08/21 09:25:55;;;;;;;6.53;3.58;;;28.40;99.90;;;;;;8312836;28;20267;-68
2023/08/21 09:29:57;;;;;;;5.65;3.35;;;28.50;99.90;;;;;;8324938;28;20206;-66
2023/08/21 09:34:06;;;;;;;3.88;2.90;;;28.60;99.90;;;;;;8311550;28;20187;-72
2023/08/21 09:38:08;;;;;;;5.40;2.95;;;28.60;99.90;;;;;;8306446;28;20210;-64
2023/08/21 09:42:09;;;;;;;4.15;3.22;;;28.80;99.90;;;;;;8322515;28;20189;-66
2023/08/21 09:46:23;;;;;;;3.97;2.90;;;28.90;99.90;;;;;;8324695;28;20186;-68
2023/08/21 09:50:25;;;;;;;3.22;2.30;;;28.60;99.90;;;;;;8323890;28;20292;-71
2023/08/21 09:54:25;;;;;;;3.72;2.90;;;28.10;99.90;;;;;;8304924;28;20273;-71
2023/08/21 09:58:26;;;;;;;4.90;2.70;;;27.90;99.90;;;;;;8304251;28;20213;-66
2023/08/21 10:02:29;;;;;;;4.53;2.33;;;27.80;99.90;;;;;;8317743;28;20261;-66
2023/08/21 10:06:30;;;;;;;3.33;2.67;;;27.60;99.90;;;;;;8322800;28;20186;-69
2023/08/21 10:10:32;;;;;;;5.10;2.70;;;27.40;99.90;;;;;;8303540;28;20218;-68
2023/08/21 10:14:33;;;;;;;4.47;2.33;;;27.40;99.90;;;;;;8327710;28;20190;-69
2023/08/21 10:18:36;;;;;;;3.58;2.78;;;27.30;99.90;;;;;;8313589;28;20210;-66
2023/08/21 10:22:44;;;;;;;4.43;2.55;;;27.30;99.90;;;;;;8310519;28;20206;-64
2023/08/21 10:26:44;;;;;;;4.50;3.22;;;27.30;99.90;;;;;;8322580;28;20186;-65
2023/08/21 10:30:45;;;;;;;4.60;3.03;;;27.30;99.90;;;;;;8325185;28;20208;-66
2023/08/21 10:34:53;;;;;;;4.32;3.40;;;27.30;99.90;;;;;;8318525;28;20191;-68
2023/08/21 10:39:00;;;;;;;3.83;3.38;;;27.30;99.90;;;;;;8306368;28;20217;-68
2023/08/21 10:43:02;;;;;;;4.05;3.35;;;27.40;99.90;;;;;;8300675;28;20182;-70
2023/08/21 10:47:21;;;;;;;4.82;3.80;;;27.40;99.90;;;;;;8311940;28;20181;-67
2023/08/21 10:51:22;;;;;;;6.15;3.33;;;27.60;99.90;;;;;;8306965;28;20193;-67
2023/08/21 10:55:23;;;;;;;3.15;2.85;;;27.70;99.90;;;;;;8318959;28;20236;-69
2023/08/21 10:59:23;;;;;;;3.67;2.92;;;27.80;99.90;;;;;;8304338;28;20212;-65
2023/08/21 11:03:24;;;;;;;3.17;2.85;;;27.80;99.90;;;;;;8314258;28;20281;-62
2023/08/21 11:07:25;;;;;;;3.20;2.90;;;27.80;99.90;;;;;;8303717;28;20198;-64
2023/08/21 11:11:26;;;;;;;3.95;2.53;;;27.90;99.90;;;;;;8302103;28;20212;-67
2023/08/21 11:15:28;;;;;;;3.35;2.78;;;28.00;99.90;;;;;;8325999;28;20654;-62
2023/08/21 11:19:33;;;;;;;3.10;2.80;;;28.00;99.90;;;;;;8310557;28;20218;-65
2023/08/21 11:23:38;;;;;;;4.10;2.70;;;28.00;99.90;;;;;;8318059;28;20198;-65
2023/08/21 11:27:39;;;;;;;4.57;2.70;;;28.10;99.90;;;;;;8317940;28;20197;-65
2023/08/21 11:31:40;;;;;;;3.42;2.85;;;28.20;99.90;;;;;;8326716;28;20201;-66
2023/08/21 11:35:41;;;;;;;3.10;2.80;;;28.20;99.90;;;;;;8324051;28;20190;-65
2023/08/21 11:39:44;;;;;;;3.67;2.70;;;28.30;99.90;;;;;;8316944;28;20185;-68
2023/08/21 11:43:45;;;;;;;4.18;2.70;;;28.40;99.90;;;;;;8301909;28;20198;-64
2023/08/21 11:47:46;;;;;;;4.50;3.10;;;28.40;99.90;;;;;;8307270;28;20190;-65
2023/08/21 11:51:47;;;;;;;3.17;2.97;;;28.60;99.90;;;;;;8325004;28;20197;-65
2023/08/21 11:55:50;;;;;;;3.78;3.35;;;28.70;99.90;;;;;;8314047;28;20197;-66
2023/08/21 11:59:55;;;;;;;3.67;3.28;;;28.70;99.90;;;;;;8313221;28;20179;-65
2023/08/21 12:03:56;;;;;;;3.17;2.85;;;28.70;99.90;;;;;;8322893;28;20268;-68
2023/08/21 12:07:57;;;;;;;9.23;3.05;;;28.70;99.90;;;;;;8307708;28;20186;-66
2023/08/21 12:11:58;;;;;;;3.75;3.38;;;28.80;99.90;;;;;;8325455;28;20202;-64
2023/08/21 12:15:58;;;;;;;3.33;2.90;;;28.70;99.90;;;;;;8329216;28;20217;-66
2023/08/21 12:19:59;;;;;;;3.65;3.35;;;28.60;99.90;;;;;;8308665;28;20236;-66
2023/08/21 12:24:00;;;;;;;5.90;3.40;;;28.30;99.90;;;;;;8308314;28;20208;-64
2023/08/21 12:28:01;;;;;;;3.60;3.00;;;28.40;99.90;;;;;;8307914;28;20194;-68
2023/08/21 12:32:03;;;;;;;3.25;2.88;;;28.40;99.90;;;;;;8317175;28;20189;-68
2023/08/21 12:36:03;;;;;;;3.30;3.00;;;28.60;99.90;;;;;;8312969;28;20246;-67
2023/08/21 12:40:05;;;;;;;5.15;3.05;;;28.70;99.90;;;;;;8323726;28;20183;-68
2023/08/21 12:44:08;;;;;;;4.90;3.33;;;29.00;99.90;;;;;;8311421;28;20328;-66
2023/08/21 12:48:09;;;;;;;5.30;3.33;;;29.10;99.90;;;;;;8323611;28;20732;-65
2023/08/21 12:52:12;;;;;;;3.40;3.08;;;29.20;99.90;;;;;;8321786;28;20190;-68
2023/08/21 12:56:12;;;;;;;3.30;2.85;;;29.20;99.90;;;;;;8328129;28;20210;-69
2023/08/21 13:00:13;;;;;;;2.90;2.70;;;29.30;99.90;;;;;;8320863;28;20209;-68
2023/08/21 13:04:14;;;;;;;3.00;2.72;;;29.50;99.90;;;;;;8313294;28;20499;-68
2023/08/21 13:08:15;;;;;;;4.15;2.80;;;29.60;99.90;;;;;;8325129;28;20228;-69
2023/08/21 13:12:16;;;;;;;3.05;2.75;;;29.70;99.90;;;;;;8316251;28;20377;-67
2023/08/21 13:16:17;;;;;;;4.22;3.00;;;29.60;99.90;;;;;;8311046;28;20223;-65
2023/08/21 13:20:19;;;;;;;4.78;2.85;;;29.50;99.90;;;;;;8325157;28;20178;-66
2023/08/21 13:24:20;;;;;;;4.80;2.85;;;29.50;99.90;;;;;;8317190;28;20194;-65
2023/08/21 13:28:20;;;;;;;4.50;2.95;;;29.90;99.90;;;;;;8309141;28;20194;-65
2023/08/21 13:32:21;;;;;;;3.28;2.88;;;30.40;99.90;;;;;;8308359;28;20379;-69
2023/08/21 13:36:22;;;;;;;3.42;2.67;;;30.80;99.90;;;;;;8309567;28;20206;-65
2023/08/21 13:40:24;;;;;;;3.35;2.70;;;31.20;99.90;;;;;;8305426;28;20190;-67
2023/08/21 13:44:25;;;;;;;4.03;2.60;;;31.50;99.90;;;;;;8329661;28;20182;-65
2023/08/21 13:48:25;;;;;;;3.05;2.45;;;31.30;99.90;;;;;;8313525;28;20193;-65
2023/08/21 13:52:26;;;;;;;3.45;2.78;;;30.90;99.90;;;;;;8301742;28;20201;-66
2023/08/21 13:56:27;;;;;;;2.67;2.30;;;30.70;99.90;;;;;;8313452;28;20209;-64
2023/08/21 14:00:27;;;;;;;3.03;2.70;;;30.20;99.90;;;;;;8325837;28;20214;-66
2023/08/21 14:04:30;;;;;;;6.10;2.80;;;30.30;99.90;;;;;;8320043;28;20212;-64
2023/08/21 14:08:30;;;;;;;2.75;2.40;;;30.30;99.90;;;;;;8322803;28;20281;-67
2023/08/21 14:12:31;;;;;;;2.67;2.47;;;30.30;99.90;;;;;;8321739;28;20182;-64
2023/08/21 14:16:32;;;;;;;3.55;2.80;;;30.10;99.90;;;;;;8307384;28;20276;-66
2023/08/21 14:20:33;;;;;;;3.70;3.33;;;30.00;99.90;;;;;;8320995;28;20190;-64
2023/08/21 14:24:34;;;;;;;4.68;3.00;;;29.90;99.90;;;;;;8311267;28;20198;-65
2023/08/21 14:28:34;;;;;;;3.30;2.78;;;29.90;99.90;;;;;;8322648;28;20201;-64
2023/08/21 14:32:37;;;;;;;7.45;3.13;;;29.70;99.90;;;;;;8327594;28;20185;-64
2023/08/21 14:36:38;;;;;;;3.78;2.97;;;29.40;99.90;;;;;;8325686;28;20202;-63
2023/08/21 14:40:38;;;;;;;4.93;4.53;;;29.10;99.90;;;;;;8326815;28;20228;-64
2023/08/21 14:44:39;;;;;;;4.65;3.60;;;29.20;99.90;;;;;;8327898;28;20190;-65
2023/08/21 14:48:40;;;;;;;5.45;3.53;;;29.40;99.90;;;;;;8319900;28;20193;-65
2023/08/21 14:52:41;;;;;;;4.00;3.40;;;29.20;99.90;;;;;;8319217;28;20202;-66
2023/08/21 14:56:41;;;;;;;4.78;3.28;;;29.10;99.90;;;;;;8323451;28;20295;-64
2023/08/21 15:00:42;;;;;;;5.53;3.45;;;28.90;99.90;;;;;;8299047;28;20185;-66
2023/08/21 15:04:43;;;;;;;3.80;3.45;;;28.80;99.90;;;;;;8310629;28;20270;-65
2023/08/21 15:08:44;;;;;;;4.55;3.85;;;28.70;99.90;;;;;;8318769;28;20205;-67
2023/08/21 15:12:44;;;;;;;6.78;3.83;;;28.80;99.90;;;;;;8316471;28;20273;-64
2023/08/21 15:16:45;;;;;;;4.13;3.47;;;28.90;99.90;;;;;;8305926;28;20211;-64
2023/08/21 15:20:46;;;;;;;3.40;3.13;;;28.70;99.90;;;;;;8309465;28;20217;-64
2023/08/21 15:24:46;;;;;;;4.05;3.55;;;28.80;99.90;;;;;;8330429;28;20201;-65
2023/08/21 15:28:48;;;;;;;4.10;3.60;;;28.70;99.90;;;;;;8326219;28;20187;-65
2023/08/21 15:32:48;;;;;;;5.13;4.63;;;28.70;99.90;;;;;;8327595;28;20252;-63
2023/08/21 15:36:49;;;;;;;4.72;4.15;;;28.60;99.90;;;;;;8309097;28;20210;-65
2023/08/21 15:40:50;;;;;;;4.20;3.78;;;28.70;99.90;;;;;;8313398;28;20186;-65
2023/08/21 15:44:50;;;;;;;4.47;4.07;;;28.60;99.90;;;;;;8328835;28;20225;-65
2023/08/21 15:48:51;;;;;;;5.10;3.92;;;28.50;99.90;;;;;;8322614;28;20178;-64
2023/08/21 15:52:52;;;;;;;4.07;3.63;;;28.40;99.90;;;;;;8314423;28;20295;-64
2023/08/21 15:56:53;;;;;;;3.80;3.40;;;28.30;99.90;;;;;;8310097;28;20270;-65
2023/08/21 16:00:54;;;;;;;4.38;3.95;;;28.10;99.90;;;;;;8328966;28;20206;-64
2023/08/21 16:04:55;;;;;;;4.07;3.58;;;28.10;99.90;;;;;;8309423;28;20186;-65
2023/08/21 16:08:56;;;;;;;7.45;4.00;;;28.10;99.90;;;;;;8324626;28;20207;-64
2023/08/21 16:12:57;;;;;;;6.47;4.68;;;27.90;99.90;;;;;;8313772;28;20190;-65
2023/08/21 16:16:58;;;;;;;5.07;4.35;;;27.80;99.90;;;;;;8316978;28;20218;-65
2023/08/21 16:20:59;;;;;;;6.72;4.95;;;27.90;99.90;;;;;;8309702;28;20626;-65
2023/08/21 16:25:02;;;;;;;4.80;3.88;;;28.10;99.90;;;;;;8321429;28;20275;-66
2023/08/21 16:29:03;;;;;;;7.35;3.78;;;27.80;99.90;;;;;;8310936;28;20253;-66
2023/08/21 16:33:04;;;;;;;4.88;3.65;;;27.70;99.90;;;;;;8320508;28;20191;-65
2023/08/21 16:37:05;;;;;;;6.18;4.13;;;27.60;99.90;;;;;;8313128;28;20208;-64
2023/08/21 16:41:06;;;;;;;8.70;7.20;;;27.40;99.90;;;;;;8322358;28;20190;-63
2023/08/21 16:45:10;;;;;;;5.28;4.15;;;27.30;99.90;;;;;;8309640;28;20656;-63
2023/08/21 16:49:11;;;;;;;5.65;4.03;;;27.20;99.90;;;;;;8306567;28;20225;-65
2023/08/21 16:53:12;;;;;;;4.65;4.20;;;27.30;99.90;;;;;;8308900;28;22322;-63
2023/08/21 16:57:14;;;;;;;4.13;3.67;;;27.30;99.90;;;;;;8321277;28;20217;-66
2023/08/21 17:01:14;;;;;;;8.10;4.55;;;27.30;99.90;;;;;;8307711;28;20181;-63
2023/08/21 17:05:15;;;;;;;4.95;4.32;;;27.10;99.90;;;;;;8323955;28;20193;-62
2023/08/21 17:09:16;;;;;;;5.60;4.10;;;26.90;99.90;;;;;;8307669;28;20206;-63
2023/08/21 17:13:16;;;;;;;5.18;4.63;;;26.80;99.90;;;;;;8322158;28;20190;-64
2023/08/21 17:17:17;;;;;;;6.15;5.55;;;26.60;99.90;;;;;;8303307;28;20272;-63
2023/08/21 17:21:18;;;;;;;5.70;5.15;;;26.20;99.90;;;;;;8321342;28;20186;-63
2023/08/21 17:25:19;;;;;;;5.30;4.80;;;26.10;99.90;;;;;;8316872;28;20192;-66
2023/08/21 17:29:20;;;;;;;4.68;4.20;;;26.00;99.90;;;;;;8319924;28;20186;-66
2023/08/21 17:33:20;;;;;;;4.55;4.15;;;25.90;99.90;;;;;;8315082;28;20221;-65
2023/08/21 17:37:21;;;;;;;6.05;4.82;;;25.80;99.90;;;;;;8314206;28;20209;-65
2023/08/21 17:41:22;;;;;;;8.00;5.30;;;25.70;99.90;;;;;;8313105;28;20213;-65
2023/08/21 17:45:23;;;;;;;8.40;5.28;;;25.50;99.90;;;;;;8322971;28;20211;-65
2023/08/21 17:49:23;;;;;;;9.50;5.88;;;25.50;99.90;;;;;;8320449;28;20301;-65
2023/08/21 17:53:24;;;;;;;6.38;5.43;;;25.50;99.90;;;;;;8296521;28;20192;-67
2023/08/21 17:57:25;;;;;;;5.47;4.80;;;25.30;99.90;;;;;;8301597;28;20206;-67
2023/08/21 18:01:26;;;;;;;5.90;5.27;;;24.90;1.00;;;;;;8308152;28;20186;-69
2023/08/21 18:05:29;;;;;;;7.03;5.13;;;24.60;1.00;;;;;;8296975;28;20189;-66
2023/08/21 18:09:29;;;;;;;5.53;5.03;;;24.30;1.00;;;;;;8316160;28;20253;-65
2023/08/21 18:13:30;;;;;;;5.47;4.97;;;23.90;1.00;;;;;;8303743;28;20204;-64
2023/08/21 18:17:31;;;;;;;5.83;5.10;;;23.70;1.00;;;;;;8319440;28;20297;-64
2023/08/21 18:21:32;;;;;;;5.47;4.97;;;23.40;1.00;;;;;;8319627;28;20190;-65
2023/08/21 18:25:33;;;;;;;6.03;5.30;;;23.10;1.00;;;;;;8313431;28;20568;-65
2023/08/21 18:29:37;;;;;;;5.73;5.17;;;22.80;1.00;;;;;;8313583;28;20315;-65
2023/08/21 18:33:37;;;;;;;9.10;5.73;;;22.60;1.00;;;;;;8322207;28;20189;-64
2023/08/21 18:37:38;;;;;;;6.13;5.50;;;22.40;34.00;;;;;;8313965;28;20198;-65
2023/08/21 18:41:42;;;;;;;6.73;6.07;;;22.30;94.70;;;;;;8326595;28;20267;-65
2023/08/21 18:45:43;;;;;;;6.30;5.70;;;22.10;99.90;;;;;;8322443;28;20216;-65
2023/08/21 18:49:44;;;;;;;6.70;6.00;;;21.90;99.90;;;;;;8311581;28;20197;-64
2023/08/21 18:53:44;;;;;;;7.10;6.47;;;21.70;99.90;;;;;;8297334;28;20185;-65
2023/08/21 18:57:45;;;;;;;6.33;5.73;;;21.50;99.90;;;;;;8320507;28;20210;-66
2023/08/21 19:01:46;;;;;;;6.70;6.10;;;21.40;99.90;;;;;;8323640;28;20181;-66
2023/08/21 19:05:47;;;;;;;6.43;5.83;;;21.30;99.90;;;;;;8322328;28;20217;-66
2023/08/21 19:09:47;;;;;;;7.00;6.30;;;21.20;99.90;;;;;;8303756;28;20599;-66
2023/08/21 19:13:48;;;;;;;7.17;6.50;;;21.10;99.90;;;;;;8314458;28;20193;-66
2023/08/21 19:17:49;;;;;;;6.30;5.80;;;21.00;99.90;;;;;;8312005;28;20210;-65
2023/08/21 19:21:50;;;;;;;6.90;6.10;;;20.90;1.00;;;;;;8307263;28;20197;-66
2023/08/21 19:25:51;;;;;;;6.30;5.80;;;20.90;1.00;;;;;;8310024;28;20193;-67
2023/08/21 19:29:51;;;;;;;7.40;6.73;;;20.80;1.00;;;;;;8321447;28;20186;-64
2023/08/21 19:33:52;;;;;;;7.70;6.90;;;20.80;1.00;;;;;;8316324;28;20186;-66
2023/08/21 19:37:53;;;;;;;9.50;7.17;;;20.70;1.00;;;;;;8319246;28;20209;-70
2023/08/21 19:41:54;;;;;;;8.03;7.23;;;20.60;1.00;;;;;;8322789;28;20315;-66
2023/08/21 19:45:55;;;;;;;8.67;7.77;;;20.50;43.40;;;;;;8316514;28;20182;-65
2023/08/21 19:49:56;;;;;;;8.10;7.33;;;20.40;53.10;;;;;;8306966;28;20272;-65
2023/08/21 19:53:57;;;;;;;7.63;6.93;;;20.30;99.90;;;;;;8311054;28;20190;-65
2023/08/21 19:57:58;;;;;;;8.70;7.10;;;20.20;99.90;;;;;;8324828;28;20209;-66
2023/08/21 20:01:59;;;;;;;7.63;6.93;;;20.10;99.90;;;;;;8308598;28;20249;-66
2023/08/21 20:06:04;;;;;;;8.67;7.87;;;20.00;99.90;;;;;;8296774;28;20218;-66
2023/08/21 20:10:06;;;;;;;8.97;7.63;;;20.00;29.70;;;;;;8322002;28;20213;-65
2023/08/21 20:14:07;;;;;;;8.50;7.70;;;20.00;99.90;;;;;;8313272;28;20196;-66
2023/08/21 20:18:08;;;;;;;8.07;7.37;;;20.00;99.90;;;;;;8329571;28;20213;-66
2023/08/21 20:22:08;;;;;;;8.67;7.43;;;20.00;99.90;;;;;;8306948;28;20197;-67
2023/08/21 20:26:10;;;;;;;8.40;7.60;;;19.90;99.90;;;;;;8328570;28;20186;-66
2023/08/21 20:30:12;;;;;;;9.23;7.23;;;19.90;1.00;;;;;;8317345;28;20226;-65
2023/08/21 20:34:13;;;;;;;8.07;7.37;;;19.80;1.00;;;;;;8311236;28;20229;-67
2023/08/21 20:38:13;;;;;;;7.77;6.97;;;19.70;38.50;;;;;;8299989;28;20211;-65
2023/08/21 20:42:14;;;;;;;9.27;7.43;;;19.70;99.90;;;;;;8304091;28;20186;-64
2023/08/21 20:46:15;;;;;;;7.53;6.83;;;19.60;99.90;;;;;;8307674;28;20187;-65
2023/08/21 20:50:16;;;;;;;7.60;6.90;;;19.60;99.90;;;;;;8305652;28;20603;-66
2023/08/21 20:54:16;;;;;;;8.57;7.27;;;19.50;1.00;;;;;;8315868;28;20193;-67